KBOS/BOS METAR and TAF weather

Enter ICAO airport designator
Station Type Date Time Source
KBOS METAR 2021/03/03 02:54 UTC NOAA

KBOS 030254Z 25011KT 10SM CLR M04/M19 A2998 RMK AO2 SLP150 T10441194 50004


Station Type Date Time Source
KBOS Decoded METAR 2021/03/03 02:54 UTC NOAA

BOSTON LOGAN INTERNATIONAL, MA, United States (KBOS) 42-22N 071-01W 54M
Mar 02, 2021 - 09:54 PM EST / 2021.03.03 0254 UTC
Wind: from the WSW (250 degrees) at 13 MPH (11 KT):0
Visibility: 10 mile(s):0
Sky conditions: clear
Temperature: 24.1 F (-4.4 C)
Windchill: 12 F (-11 C):1
Dew Point: -2.9 F (-19.4 C)
Relative Humidity: 29%
Pressure (altimeter): 29.98 in. Hg (1015 hPa)
Pressure tendency: 0.01 inches (0.4 hPa) higher than three hours ago
ob: KBOS 030254Z 25011KT 10SM CLR M04/M19 A2998 RMK AO2 SLP150 T10441194 50004
cycle: 3

Station Type Date Time Source
KBOS TAF 2021/03/02 21:06 UTC NOAA

TAF
AMD KBOS 022100Z 0221/0324 29017G32KT P6SM SKC
FM030200 27015G25KT P6SM SKC
FM030600 24010G20KT P6SM BKN070
FM031850 27013G23KT P6SM SCT045

Example: see airport list